createdAt,value
2022-09-03T00:00:19.590Z,74.95
2022-09-03T00:03:13.365Z,75.14
2022-09-03T00:06:07.883Z,75.57
2022-09-03T00:09:00.139Z,75.38
2022-09-03T00:12:04.588Z,75.52
2022-09-03T00:15:04.753Z,75.37
2022-09-03T00:18:02.937Z,75.16
2022-09-03T00:20:58.869Z,74.96
2022-09-03T00:23:48.575Z,75.00
2022-09-03T00:26:35.717Z,75.44
2022-09-03T00:29:35.519Z,75.04
2022-09-03T00:33:19.957Z,75.23
2022-09-03T00:36:14.909Z,75.24
2022-09-03T00:39:00.127Z,75.35
2022-09-03T00:42:13.300Z,75.24
2022-09-03T00:45:07.856Z,75.23
2022-09-03T00:48:12.027Z,75.27
2022-09-03T00:51:35.271Z,74.97
2022-09-03T00:54:33.157Z,75.08
2022-09-03T00:57:38.894Z,75.41
2022-09-03T01:00:24.437Z,75.71
2022-09-03T01:03:15.617Z,75.46
2022-09-03T01:06:07.287Z,75.37
2022-09-03T01:09:17.041Z,75.26
2022-09-03T01:12:02.435Z,76.11
2022-09-03T01:15:00.320Z,75.59
2022-09-03T01:18:13.605Z,75.84
2022-09-03T01:21:09.094Z,75.59
2022-09-03T01:24:13.608Z,75.80
2022-09-03T01:27:11.120Z,76.10
2022-09-03T01:30:06.166Z,75.82
2022-09-03T01:33:06.962Z,75.97
2022-09-03T01:36:03.186Z,75.97
2022-09-03T01:39:13.585Z,76.27
2022-09-03T01:42:20.174Z,75.76
2022-09-03T01:45:31.502Z,76.00
2022-09-03T01:48:59.275Z,75.86
2022-09-03T01:51:45.282Z,75.76
2022-09-03T01:55:09.293Z,76.11
2022-09-03T01:58:34.336Z,76.42
2022-09-03T02:01:29.484Z,76.49
2022-09-03T02:04:20.518Z,76.57
2022-09-03T02:07:06.248Z,76.59
2022-09-03T02:09:51.574Z,76.68
2022-09-03T02:12:43.108Z,76.64
2022-09-03T02:15:31.167Z,76.86
2022-09-03T02:18:21.035Z,77.01
2022-09-03T02:21:07.672Z,76.83
2022-09-03T02:23:53.586Z,76.84
2022-09-03T02:26:39.114Z,77.22
2022-09-03T02:29:25.252Z,76.95
2022-09-03T02:32:15.005Z,77.09
2022-09-03T02:35:00.582Z,77.03
2022-09-03T02:37:45.998Z,77.71
2022-09-03T02:40:31.329Z,77.22
2022-09-03T02:43:52.716Z,77.48
2022-09-03T02:46:51.978Z,77.66
2022-09-03T02:49:37.369Z,77.83
2022-09-03T02:52:22.954Z,77.98
2022-09-03T02:55:08.935Z,77.87
2022-09-03T02:57:54.263Z,77.78
2022-09-03T03:00:39.573Z,77.84
2022-09-03T03:03:26.435Z,77.84
2022-09-03T03:06:13.981Z,77.81
2022-09-03T03:09:00.120Z,77.87
2022-09-03T03:11:46.839Z,78.18
2022-09-03T03:14:32.229Z,78.25
2022-09-03T03:17:17.709Z,77.98
2022-09-03T03:20:03.687Z,78.24
2022-09-03T03:22:49.084Z,78.18
2022-09-03T03:25:37.011Z,78.35
2022-09-03T03:28:22.579Z,77.71
2022-09-03T03:31:13.355Z,77.76
2022-09-03T03:34:02.034Z,78.11
2022-09-03T03:36:47.354Z,77.86
2022-09-03T03:39:34.546Z,77.64
2022-09-03T03:42:19.873Z,77.67
2022-09-03T03:45:06.733Z,77.76
2022-09-03T03:47:52.882Z,77.97
2022-09-03T03:50:38.508Z,77.86
2022-09-03T03:53:23.807Z,78.27
2022-09-03T03:56:12.347Z,78.25
2022-09-03T03:58:59.515Z,78.12
2022-09-03T04:01:45.342Z,77.95
2022-09-03T04:04:31.232Z,77.84
2022-09-03T04:07:16.560Z,78.05
2022-09-03T04:10:02.009Z,77.89
2022-09-03T04:12:47.355Z,77.94
2022-09-03T04:15:32.794Z,77.93
2022-09-03T04:18:18.262Z,77.74
2022-09-03T04:21:08.202Z,78.04
2022-09-03T04:23:54.966Z,77.98
2022-09-03T04:26:40.866Z,78.11
2022-09-03T04:29:26.556Z,78.30
2022-09-03T04:32:30.433Z,78.19
2022-09-03T04:35:16.154Z,78.32
2022-09-03T04:38:01.941Z,78.12
2022-09-03T04:40:53.109Z,78.00
2022-09-03T04:43:39.051Z,78.28
2022-09-03T04:46:33.696Z,78.35
2022-09-03T04:49:20.752Z,78.25
2022-09-03T04:52:06.296Z,78.37
2022-09-03T04:54:52.971Z,78.67
2022-09-03T04:57:39.388Z,78.61
2022-09-03T05:00:26.177Z,78.52
2022-09-03T05:03:12.746Z,78.72
2022-09-03T05:05:59.603Z,78.92
2022-09-03T05:08:49.101Z,79.18
2022-09-03T05:11:36.511Z,79.03
2022-09-03T05:14:23.740Z,79.13
2022-09-03T05:17:09.772Z,79.14
2022-09-03T05:19:55.606Z,79.33
2022-09-03T05:22:41.273Z,79.28
2022-09-03T05:25:28.546Z,79.16
2022-09-03T05:28:14.731Z,79.34
2022-09-03T05:31:04.918Z,79.22
2022-09-03T05:33:53.456Z,79.42
2022-09-03T05:36:40.371Z,79.61
2022-09-03T05:39:27.235Z,79.61
2022-09-03T05:42:15.069Z,79.61
2022-09-03T05:45:00.895Z,79.72
2022-09-03T05:47:46.338Z,79.83
2022-09-03T05:50:32.110Z,79.92
2022-09-03T05:53:18.437Z,79.86
2022-09-03T05:56:07.826Z,79.72
2022-09-03T05:58:56.119Z,79.72
2022-09-03T06:01:50.955Z,79.99
2022-09-03T06:04:38.867Z,80.14
2022-09-03T06:07:25.515Z,80.20
2022-09-03T06:10:12.818Z,80.26
2022-09-03T06:13:04.195Z,80.61
2022-09-03T06:15:49.727Z,80.05
2022-09-03T06:18:35.729Z,80.13
2022-09-03T06:21:21.795Z,79.64
2022-09-03T06:24:07.764Z,79.89
2022-09-03T06:26:53.627Z,79.63
2022-09-03T06:29:39.938Z,79.98
2022-09-03T06:32:25.440Z,80.15
2022-09-03T06:35:11.326Z,80.28
2022-09-03T06:37:57.428Z,80.17
2022-09-03T06:40:44.169Z,80.02
2022-09-03T06:43:31.953Z,80.31
2022-09-03T06:46:20.524Z,79.99
2022-09-03T06:49:06.506Z,79.93
2022-09-03T06:51:52.283Z,79.58
2022-09-03T06:54:39.645Z,78.67
2022-09-03T06:57:25.405Z,79.08
2022-09-03T07:00:12.367Z,79.23
2022-09-03T07:03:00.344Z,79.29
2022-09-03T07:05:47.758Z,78.95
2022-09-03T07:08:34.466Z,79.00
2022-09-03T07:11:23.526Z,78.50
2022-09-03T07:14:09.688Z,78.68
2022-09-03T07:16:56.912Z,78.99
2022-09-03T07:19:42.471Z,78.68
2022-09-03T07:22:31.487Z,78.48
2022-09-03T07:25:18.638Z,78.53
2022-09-03T07:28:07.090Z,78.25
2022-09-03T07:30:54.601Z,78.06
2022-09-03T07:33:42.110Z,78.31
2022-09-03T07:36:35.372Z,78.12
2022-09-03T07:39:22.921Z,78.16
2022-09-03T07:42:10.958Z,78.53
2022-09-03T07:44:56.948Z,78.01
2022-09-03T07:47:48.705Z,78.29
2022-09-03T07:50:39.348Z,78.25
2022-09-03T07:53:25.365Z,78.60
2022-09-03T07:56:12.931Z,78.82
2022-09-03T07:58:59.698Z,79.02
2022-09-03T08:01:45.218Z,79.17
2022-09-03T08:04:31.375Z,78.85
2022-09-03T08:07:17.396Z,79.06
2022-09-03T08:10:05.113Z,78.55
2022-09-03T08:12:51.087Z,79.09
2022-09-03T08:15:37.579Z,79.50
2022-09-03T08:18:23.303Z,79.11
2022-09-03T08:21:16.258Z,78.79
2022-09-03T08:24:05.879Z,79.51
2022-09-03T08:26:52.668Z,79.76
2022-09-03T08:29:38.777Z,79.62
2022-09-03T08:32:24.542Z,79.21
2022-09-03T08:35:10.992Z,79.79
2022-09-03T08:37:57.153Z,79.33
2022-09-03T08:40:44.827Z,79.60
2022-09-03T08:43:31.514Z,79.66
2022-09-03T08:46:17.450Z,79.45
2022-09-03T08:49:03.189Z,80.12
2022-09-03T08:51:51.862Z,79.89
2022-09-03T08:54:38.153Z,80.00
2022-09-03T08:57:25.660Z,79.44
2022-09-03T09:00:12.782Z,79.74
2022-09-03T09:03:21.769Z,79.57
2022-09-03T09:06:26.326Z,79.31
2022-09-03T09:09:27.951Z,79.51
2022-09-03T09:12:41.314Z,79.92
2022-09-03T09:15:52.559Z,79.31
2022-09-03T09:18:56.804Z,79.05
2022-09-03T09:22:01.297Z,78.74
2022-09-03T09:24:49.203Z,78.93
2022-09-03T09:27:35.133Z,79.33
2022-09-03T09:30:21.304Z,79.75
2022-09-03T09:33:08.254Z,79.81
2022-09-03T09:35:54.492Z,79.67
2022-09-03T09:38:41.538Z,79.49
2022-09-03T09:41:29.838Z,79.98
2022-09-03T09:44:21.089Z,79.87
2022-09-03T09:47:12.654Z,80.38
2022-09-03T09:50:00.626Z,80.52
2022-09-03T09:53:01.056Z,80.72
2022-09-03T09:55:55.963Z,81.16
2022-09-03T09:58:41.834Z,81.53
2022-09-03T10:01:30.503Z,81.27
2022-09-03T10:04:27.782Z,81.24
2022-09-03T10:07:33.754Z,80.88
2022-09-03T10:10:23.509Z,80.49
2022-09-03T10:13:25.070Z,79.85
2022-09-03T10:16:26.051Z,79.99
2022-09-03T10:19:20.969Z,80.60
2022-09-03T10:22:18.692Z,80.52
2022-09-03T10:25:05.159Z,81.22
2022-09-03T10:27:55.703Z,80.65
2022-09-03T10:31:20.382Z,80.83
2022-09-03T10:34:41.610Z,81.03
2022-09-03T10:37:51.329Z,80.47
2022-09-03T10:40:42.766Z,79.82
2022-09-03T10:43:52.025Z,79.27
2022-09-03T10:46:55.307Z,79.04
2022-09-03T10:50:01.818Z,79.31
2022-09-03T10:53:31.504Z,79.18
2022-09-03T10:56:25.566Z,79.45
2022-09-03T10:59:31.242Z,79.12
2022-09-03T11:02:32.585Z,78.85
2022-09-03T11:05:31.949Z,79.69
2022-09-03T11:08:25.136Z,79.69
2022-09-03T11:11:39.942Z,79.18
2022-09-03T11:14:45.274Z,78.69
2022-09-03T11:17:43.150Z,79.12
2022-09-03T11:20:30.558Z,79.11
2022-09-03T11:23:17.297Z,79.30
2022-09-03T11:26:12.885Z,78.75
2022-09-03T11:29:01.177Z,79.29
2022-09-03T11:32:07.917Z,79.19
2022-09-03T11:34:55.464Z,78.48
2022-09-03T11:38:03.152Z,78.69
2022-09-03T11:41:00.871Z,78.50
2022-09-03T11:43:47.325Z,77.73
2022-09-03T11:46:35.248Z,77.90
2022-09-03T11:49:33.454Z,77.87
2022-09-03T11:52:40.662Z,77.70
2022-09-03T11:55:32.627Z,77.42
2022-09-03T11:58:30.028Z,77.77
2022-09-03T12:01:22.953Z,78.07
2022-09-03T12:04:15.686Z,77.92
2022-09-03T12:07:32.756Z,78.34
2022-09-03T12:10:46.504Z,77.31
2022-09-03T12:13:58.508Z,77.72
2022-09-03T12:17:05.635Z,77.81
2022-09-03T12:20:00.169Z,77.79
2022-09-03T12:22:46.710Z,77.72
2022-09-03T12:25:34.432Z,78.02
2022-09-03T12:28:25.618Z,78.15
2022-09-03T12:31:24.768Z,77.96
2022-09-03T12:34:13.958Z,78.29
2022-09-03T12:37:01.594Z,78.55
2022-09-03T12:40:11.872Z,78.33
2022-09-03T12:46:33.643Z,78.67
2022-09-03T12:49:30.490Z,78.66
2022-09-03T12:52:29.714Z,78.20
2022-09-03T12:55:45.866Z,78.36
2022-09-03T12:58:45.475Z,77.77
2022-09-03T13:01:47.350Z,77.61
2022-09-03T13:04:36.829Z,78.13
2022-09-03T13:07:35.000Z,77.96
2022-09-03T13:10:32.726Z,78.60
2022-09-03T13:13:28.183Z,78.52
2022-09-03T13:16:43.107Z,78.86
2022-09-03T13:19:38.213Z,78.78
2022-09-03T13:22:53.235Z,79.03
2022-09-03T13:25:49.151Z,78.48
2022-09-03T13:28:39.672Z,78.79
2022-09-03T13:31:38.820Z,78.88
2022-09-03T13:34:33.731Z,78.57
2022-09-03T13:37:39.630Z,79.08
2022-09-03T13:40:31.507Z,78.93
2022-09-03T13:44:07.806Z,78.76
2022-09-03T13:47:08.465Z,78.90
2022-09-03T13:50:23.502Z,78.95
2022-09-03T13:53:30.330Z,78.14
2022-09-03T13:56:20.177Z,78.77
2022-09-03T13:59:35.095Z,78.61
2022-09-03T14:02:43.171Z,78.62
2022-09-03T14:05:57.904Z,78.74
2022-09-03T14:08:59.809Z,78.31
2022-09-03T14:12:04.144Z,78.18
2022-09-03T14:15:09.510Z,78.02
2022-09-03T14:18:11.185Z,78.33
2022-09-03T14:21:03.234Z,78.16
2022-09-03T14:24:06.281Z,77.79
2022-09-03T14:27:02.523Z,77.70
2022-09-03T14:29:58.295Z,78.07
2022-09-03T14:33:13.930Z,77.89
2022-09-03T14:36:23.124Z,77.85
2022-09-03T14:39:46.096Z,78.23
2022-09-03T14:42:51.901Z,78.27
2022-09-03T14:45:45.618Z,78.38
2022-09-03T14:49:09.579Z,77.96
2022-09-03T14:52:18.313Z,78.10
2022-09-03T14:55:20.248Z,78.35
2022-09-03T14:58:23.596Z,78.11
2022-09-03T15:01:19.684Z,78.09
2022-09-03T15:04:24.667Z,78.15
2022-09-03T15:07:41.730Z,78.22
2022-09-03T15:10:55.914Z,78.08
2022-09-03T15:14:11.217Z,78.09
2022-09-03T15:17:17.800Z,78.40
2022-09-03T15:20:24.595Z,78.53
2022-09-03T15:23:52.140Z,78.44
2022-09-03T15:27:05.647Z,78.17
2022-09-03T15:30:21.637Z,78.01
2022-09-03T15:33:18.238Z,77.94
2022-09-03T15:36:27.077Z,78.22
2022-09-03T15:39:27.639Z,78.00
2022-09-03T15:42:29.078Z,77.89
2022-09-03T15:45:36.945Z,77.91
2022-09-03T15:48:48.969Z,78.06
2022-09-03T15:51:55.324Z,78.14
2022-09-03T15:54:53.249Z,77.99
2022-09-03T15:57:51.575Z,77.87
2022-09-03T16:00:55.512Z,78.08
2022-09-03T16:03:57.262Z,78.00
2022-09-03T16:07:01.406Z,77.83
2022-09-03T16:10:25.964Z,78.45
2022-09-03T16:13:47.927Z,77.82
2022-09-03T16:17:01.277Z,77.60
2022-09-03T16:20:06.930Z,77.72
2022-09-03T16:23:06.427Z,77.63
2022-09-03T16:26:16.524Z,77.67
2022-09-03T16:29:16.242Z,77.66
2022-09-03T16:32:20.612Z,77.48
2022-09-03T16:35:17.667Z,77.63
2022-09-03T16:38:46.838Z,77.76
2022-09-03T16:42:02.463Z,77.53
2022-09-03T16:45:51.556Z,77.26
2022-09-03T16:49:17.170Z,77.00
2022-09-03T16:52:18.021Z,76.76
2022-09-03T16:55:22.358Z,76.17
2022-09-03T16:58:22.199Z,76.06
2022-09-03T17:01:21.313Z,76.10
2022-09-03T17:04:25.705Z,75.97
2022-09-03T17:07:29.716Z,76.00
2022-09-03T17:10:39.356Z,76.07
2022-09-03T17:13:43.743Z,75.62
2022-09-03T17:16:57.704Z,75.65
2022-09-03T17:19:58.197Z,76.01
2022-09-03T17:23:10.133Z,76.17
2022-09-03T17:26:31.458Z,75.51
2022-09-03T17:29:38.306Z,75.77
2022-09-03T17:32:57.920Z,76.13
2022-09-03T17:36:08.264Z,76.39
2022-09-03T17:39:23.871Z,75.82
2022-09-03T17:42:26.525Z,76.07
2022-09-03T17:45:21.974Z,76.16
2022-09-03T17:48:23.424Z,76.04
2022-09-03T17:51:27.743Z,75.60
2022-09-03T17:54:26.324Z,75.81
2022-09-03T17:57:30.864Z,75.77
2022-09-03T18:00:30.938Z,75.61
2022-09-03T18:03:27.991Z,75.45
2022-09-03T18:06:42.953Z,75.72
2022-09-03T18:09:40.183Z,75.78
2022-09-03T18:13:03.592Z,75.69
2022-09-03T18:15:56.035Z,75.18
2022-09-03T18:18:52.573Z,75.43
2022-09-03T18:21:57.789Z,75.80
2022-09-03T18:25:17.942Z,75.88
2022-09-03T18:28:28.701Z,75.83
2022-09-03T18:31:34.804Z,75.44
2022-09-03T18:34:49.330Z,75.40
2022-09-03T18:37:53.980Z,75.20
2022-09-03T18:41:18.033Z,75.09
2022-09-03T18:44:28.804Z,75.07
2022-09-03T18:48:17.911Z,75.35
2022-09-03T18:51:40.398Z,75.15
2022-09-03T18:55:17.920Z,75.13
2022-09-03T18:58:57.418Z,75.50
2022-09-03T19:02:05.205Z,75.41
2022-09-03T19:05:18.656Z,75.84
2022-09-03T19:08:26.189Z,75.95
2022-09-03T19:11:55.663Z,75.95
2022-09-03T19:15:18.249Z,75.76
2022-09-03T19:18:41.382Z,76.11
2022-09-03T19:21:59.918Z,75.68
2022-09-03T19:25:04.494Z,75.50
2022-09-03T19:28:33.971Z,75.64
2022-09-03T19:31:41.741Z,75.66
2022-09-03T19:35:05.610Z,75.75
2022-09-03T19:38:46.303Z,75.68
2022-09-03T19:41:59.096Z,75.81
2022-09-03T19:45:21.909Z,76.21
2022-09-03T19:48:45.451Z,76.06
2022-09-03T19:52:05.637Z,76.18
2022-09-03T19:55:17.020Z,76.17
2022-09-03T19:58:42.065Z,76.20
2022-09-03T20:01:53.017Z,76.02
2022-09-03T20:05:03.998Z,75.93
2022-09-03T20:08:13.274Z,75.93
2022-09-03T20:11:00.703Z,75.87
2022-09-03T20:14:05.217Z,76.01
2022-09-03T20:17:20.019Z,76.25
2022-09-03T20:20:54.520Z,75.87
2022-09-03T20:24:24.836Z,75.94
2022-09-03T20:27:32.124Z,75.82
2022-09-03T20:30:20.506Z,75.54
2022-09-03T20:33:15.016Z,75.51
2022-09-03T20:36:21.281Z,75.36
2022-09-03T20:39:22.675Z,75.54
2022-09-03T20:42:40.710Z,75.45
2022-09-03T20:45:51.785Z,75.21
2022-09-03T20:48:40.376Z,75.64
2022-09-03T20:51:36.326Z,75.49
2022-09-03T20:54:47.620Z,75.93
2022-09-03T20:58:01.078Z,75.55
2022-09-03T21:01:04.695Z,75.63
2022-09-03T21:04:38.424Z,75.76
2022-09-03T21:07:43.173Z,75.88
2022-09-03T21:10:58.428Z,75.78
2022-09-03T21:13:53.582Z,75.84
2022-09-03T21:17:18.772Z,76.21
2022-09-03T21:20:27.876Z,76.58
2022-09-03T21:23:31.551Z,76.56
2022-09-03T21:26:23.519Z,76.60
2022-09-03T21:29:12.515Z,76.53
2022-09-03T21:32:22.704Z,76.20
2022-09-03T21:35:30.541Z,75.95
2022-09-03T21:38:26.987Z,76.13
2022-09-03T21:41:21.578Z,76.19
2022-09-03T21:44:13.983Z,75.88
2022-09-03T21:47:13.558Z,76.17
2022-09-03T21:50:17.038Z,76.39
2022-09-03T21:53:18.516Z,76.61
2022-09-03T21:56:21.793Z,76.87
2022-09-03T21:59:45.127Z,77.26
2022-09-03T22:02:33.445Z,77.34
2022-09-03T22:05:20.513Z,77.35
2022-09-03T22:08:31.876Z,77.25
2022-09-03T22:11:46.849Z,77.29
2022-09-03T22:14:43.665Z,77.22
2022-09-03T22:17:57.065Z,77.39
2022-09-03T22:20:52.922Z,77.56
2022-09-03T22:24:14.933Z,77.76
2022-09-03T22:27:08.389Z,77.94
2022-09-03T22:30:08.649Z,78.01
2022-09-03T22:33:34.528Z,78.19
2022-09-03T22:36:31.170Z,77.88
2022-09-03T22:39:25.514Z,78.45
2022-09-03T22:42:29.124Z,78.46
2022-09-03T22:45:26.646Z,78.52
2022-09-03T22:48:35.438Z,78.43
2022-09-03T22:51:21.961Z,78.09
2022-09-03T22:54:23.452Z,78.00
2022-09-03T22:57:10.916Z,78.03
2022-09-03T23:00:09.777Z,77.64
2022-09-03T23:03:03.643Z,76.94
2022-09-03T23:06:04.640Z,76.74
2022-09-03T23:09:02.832Z,76.58
2022-09-03T23:12:15.229Z,76.34
2022-09-03T23:15:06.521Z,75.93
2022-09-03T23:18:06.770Z,76.20
2022-09-03T23:21:06.059Z,76.22
2022-09-03T23:24:03.880Z,76.27
2022-09-03T23:26:53.520Z,76.41
2022-09-03T23:29:53.741Z,76.25
2022-09-03T23:32:39.758Z,76.06
2022-09-03T23:35:34.478Z,76.34
2022-09-03T23:38:36.413Z,76.36
2022-09-03T23:41:36.250Z,76.27
2022-09-03T23:44:43.528Z,76.08
2022-09-03T23:47:41.765Z,76.07
2022-09-03T23:50:46.372Z,76.09
2022-09-03T23:53:59.952Z,75.95
2022-09-03T23:56:57.286Z,76.30
2022-09-03T23:59:51.669Z,75.97
